Time;durP1;ratioP1;P1;durP2;ratioP2;P2;SDS_P1;SDS_P2;PMS_P1;PMS_P2;Temp;Humidity;BMP_temperature;BMP_pressure;BME280_temperature;BME280_humidity;BME280_pressure;Samples;Min_cycle;Max_cycle;Signal;HPM_P1;HPM_P2
2024/03/01 00:00:09;;;;;;;54.10;20.65;;;;;;;-0.82;100.00;97541.47;6109861;19;20007;-70
2024/03/01 00:02:10;;;;;;;49.13;21.20;;;;;;;-0.90;100.00;97542.31;6109774;19;20007;-70
2024/03/01 00:04:10;;;;;;;41.97;19.23;;;;;;;-0.94;100.00;97541.34;6110241;19;20907;-70
2024/03/01 00:06:11;;;;;;;37.22;17.25;;;;;;;-0.99;100.00;97545.06;6110579;19;20001;-70
2024/03/01 00:08:11;;;;;;;34.70;16.20;;;;;;;-0.97;100.00;97545.53;6109665;19;20572;-70
2024/03/01 00:10:11;;;;;;;35.70;17.25;;;;;;;-0.91;100.00;97555.09;6108318;19;20026;-70
2024/03/01 00:12:12;;;;;;;35.97;16.30;;;;;;;-0.89;100.00;97539.28;6110703;19;20486;-70
2024/03/01 00:14:12;;;;;;;32.03;16.35;;;;;;;-0.89;100.00;97539.28;6110010;19;20006;-70
2024/03/01 00:16:13;;;;;;;33.13;15.95;;;;;;;-0.96;100.00;97544.41;6110017;19;20503;-70
2024/03/01 00:18:13;;;;;;;33.97;16.20;;;;;;;-1.06;100.00;97539.34;6109836;19;19998;-70
2024/03/01 00:20:14;;;;;;;33.63;17.50;;;;;;;-1.16;100.00;97535.06;6109332;19;20392;-70
2024/03/01 00:22:14;;;;;;;31.02;15.05;;;;;;;-1.15;100.00;97530.44;6109351;19;20466;-70
2024/03/01 00:24:14;;;;;;;33.85;15.27;;;;;;;-1.19;100.00;97532.19;6110082;19;20522;-70
2024/03/01 00:26:15;;;;;;;27.25;14.93;;;;;;;-1.20;100.00;97533.31;6110415;19;19999;-70
2024/03/01 00:28:15;;;;;;;31.75;14.63;;;;;;;-1.13;100.00;97534.41;6110890;19;20105;-70
2024/03/01 00:30:16;;;;;;;29.17;14.05;;;;;;;-1.17;100.00;97530.72;6108373;19;20014;-70
2024/03/01 00:32:16;;;;;;;31.40;14.98;;;;;;;-1.21;100.00;97526.28;6110704;19;19994;-70
2024/03/01 00:34:17;;;;;;;27.58;13.63;;;;;;;-1.24;100.00;97516.88;6110322;19;20522;-70
2024/03/01 00:36:17;;;;;;;29.00;14.10;;;;;;;-1.32;100.00;97525.06;6107073;19;19998;-70
2024/03/01 00:38:17;;;;;;;26.98;12.27;;;;;;;-1.42;100.00;97512.59;6109375;19;20023;-70
2024/03/01 00:40:18;;;;;;;29.50;13.63;;;;;;;-1.43;100.00;97519.94;6109831;19;20026;-70
2024/03/01 00:42:18;;;;;;;28.20;13.10;;;;;;;-1.39;100.00;97522.03;6109280;19;20011;-70
2024/03/01 00:44:18;;;;;;;23.25;11.90;;;;;;;-1.47;100.00;97524.44;6110066;19;20002;-70
2024/03/01 00:46:19;;;;;;;24.65;12.00;;;;;;;-1.43;100.00;97525.38;6108560;19;19998;-70
2024/03/01 00:48:19;;;;;;;28.17;13.65;;;;;;;-1.49;100.00;97526.69;6108821;19;20030;-70
2024/03/01 00:50:21;;;;;;;27.50;12.77;;;;;;;-1.48;100.00;97519.34;6106738;19;20496;-70
2024/03/01 00:52:21;;;;;;;26.00;13.82;;;;;;;-1.47;100.00;97524.44;6109591;19;20023;-70
2024/03/01 00:54:22;;;;;;;33.28;13.48;;;;;;;-1.50;100.00;97516.13;6110974;19;20006;-70
2024/03/01 00:56:22;;;;;;;31.65;14.00;;;;;;;-1.52;100.00;97511.03;6110448;19;20002;-70
2024/03/01 00:58:22;;;;;;;25.60;13.25;;;;;;;-1.48;100.00;97522.84;6109947;19;20010;-70
2024/03/01 01:00:23;;;;;;;28.15;13.95;;;;;;;-1.44;100.00;97523.78;6109332;19;20066;-69
2024/03/01 01:02:23;;;;;;;27.40;13.93;;;;;;;-1.39;100.00;97524.75;6110451;19;20006;-70
2024/03/01 01:04:24;;;;;;;29.85;13.50;;;;;;;-1.37;100.00;97514.38;6109882;19;20443;-70
2024/03/01 01:06:24;;;;;;;25.52;12.27;;;;;;;-1.31;100.00;97522.00;6110628;19;20002;-70
2024/03/01 01:08:24;;;;;;;28.77;13.45;;;;;;;-1.30;100.00;97501.09;6109838;19;20078;-70
2024/03/01 01:10:25;;;;;;;25.40;12.65;;;;;;;-1.25;100.00;97507.13;6109541;19;20010;-70
2024/03/01 01:12:25;;;;;;;31.83;13.93;;;;;;;-1.22;100.00;97484.78;6110353;19;20010;-70
2024/03/01 01:14:25;;;;;;;26.33;12.82;;;;;;;-1.24;100.00;97476.19;6110662;19;20007;-70
2024/03/01 01:16:26;;;;;;;32.85;13.88;;;;;;;-1.27;100.00;97489.59;6109537;19;20003;-70
2024/03/01 01:18:26;;;;;;;27.77;13.88;;;;;;;-1.43;100.00;97481.16;6110152;19;20018;-70
2024/03/01 01:20:26;;;;;;;26.30;13.23;;;;;;;-1.55;100.00;97476.44;6108647;19;20002;-70
2024/03/01 01:22:27;;;;;;;27.20;14.23;;;;;;;-1.57;100.00;97481.38;6109854;19;20003;-70
2024/03/01 01:24:28;;;;;;;28.52;14.15;;;;;;;-1.60;100.00;97468.44;6110165;19;20470;-70
2024/03/01 01:26:28;;;;;;;25.40;12.85;;;;;;;-1.55;100.00;97464.78;6110261;19;20002;-70
2024/03/01 01:28:28;;;;;;;25.92;13.25;;;;;;;-1.53;100.00;97463.34;6108953;19;20478;-70
2024/03/01 01:30:29;;;;;;;24.38;12.20;;;;;;;-1.53;100.00;97454.41;6108732;19;20397;-70
2024/03/01 01:32:29;;;;;;;30.88;15.38;;;;;;;-1.53;100.00;97462.53;6109630;19;20009;-70
2024/03/01 01:34:30;;;;;;;31.10;14.85;;;;;;;-1.58;100.00;97462.69;6108538;19;20010;-70
2024/03/01 01:36:30;;;;;;;29.95;13.63;;;;;;;-1.61;100.00;97463.34;6108520;19;20439;-70
2024/03/01 01:38:30;;;;;;;26.88;13.80;;;;;;;-1.55;100.00;97459.34;6110353;19;20464;-70
2024/03/01 01:40:31;;;;;;;37.70;17.42;;;;;;;-1.50;100.00;97451.03;6109125;19;20002;-70
2024/03/01 01:42:32;;;;;;;32.97;16.38;;;;;;;-1.53;100.00;97455.19;6109867;19;20014;-70
2024/03/01 01:44:32;;;;;;;35.47;15.35;;;;;;;-1.50;100.00;97453.75;6108543;19;20010;-70
2024/03/01 01:46:33;;;;;;;34.20;14.30;;;;;;;-1.47;100.00;97451.19;6108698;19;20074;-70
2024/03/01 01:48:33;;;;;;;27.42;12.90;;;;;;;-1.53;100.00;97452.47;6107954;19;20006;-70
2024/03/01 01:50:34;;;;;;;23.58;12.20;;;;;;;-1.62;100.00;97446.28;6107976;19;20021;-70
2024/03/01 01:52:35;;;;;;;26.35;13.75;;;;;;;-1.66;100.00;97452.66;6110151;19;20006;-70
2024/03/01 01:54:36;;;;;;;31.60;14.40;;;;;;;-1.74;100.00;97459.69;6108574;19;20375;-70
2024/03/01 01:56:36;;;;;;;28.45;13.65;;;;;;;-1.81;100.00;97459.44;6109419;19;20034;-70
2024/03/01 01:58:37;;;;;;;31.13;15.60;;;;;;;-1.84;100.00;97443.78;6109582;19;20007;-70
2024/03/01 02:00:38;;;;;;;30.95;14.23;;;;;;;-1.79;100.00;97449.03;6107562;19;20011;-70
2024/03/01 02:02:40;;;;;;;30.05;14.77;;;;;;;-1.76;100.00;97451.91;6108681;19;20027;-70
2024/03/01 02:04:40;;;;;;;26.38;13.43;;;;;;;-1.78;100.00;97442.50;6108175;19;20353;-70
2024/03/01 02:06:44;;;;;;;25.98;13.35;;;;;;;-1.75;100.00;97442.63;6108082;19;20231;-70
2024/03/01 02:08:44;;;;;;;27.23;14.05;;;;;;;-1.68;100.00;97447.56;6107950;19;20330;-70
2024/03/01 02:10:45;;;;;;;29.23;13.15;;;;;;;-1.70;100.00;97444.41;6107433;19;19998;-70
2024/03/01 02:12:56;;;;;;;25.55;13.02;;;;;;;-1.76;100.00;97446.47;6107633;19;20044;-70
2024/03/01 02:14:56;;;;;;;25.88;12.80;;;;;;;-1.84;100.00;97444.56;6100829;19;20006;-70
2024/03/01 02:16:56;;;;;;;26.77;13.20;;;;;;;-1.85;100.00;97428.63;6106127;19;20459;-70
2024/03/01 02:18:57;;;;;;;24.83;12.45;;;;;;;-1.82;100.00;97423.38;6105305;19;19998;-70
2024/03/01 02:21:21;;;;;;;27.17;12.10;;;;;;;-1.79;100.00;97428.16;6096165;19;20010;-70
2024/03/01 02:23:21;;;;;;;26.15;12.85;;;;;;;-1.81;100.00;97422.25;6108343;19;20471;-70
2024/03/01 02:25:22;;;;;;;20.58;11.35;;;;;;;-1.83;100.00;97405.50;6108850;19;20013;-70
2024/03/01 02:27:22;;;;;;;25.02;11.82;;;;;;;-1.87;100.00;97411.91;6106533;19;20009;-70
2024/03/01 02:29:23;;;;;;;24.20;10.60;;;;;;;-1.86;100.00;97408.88;6108413;19;20006;-70
2024/03/01 02:31:23;;;;;;;26.35;11.88;;;;;;;-1.91;100.00;97409.03;6106919;19;20073;-70
2024/03/01 02:33:24;;;;;;;28.13;13.25;;;;;;;-1.96;100.00;97403.78;6108529;19;20011;-70
2024/03/01 02:35:24;;;;;;;22.73;11.88;;;;;;;-1.98;100.00;97406.03;6107072;19;20471;-70
2024/03/01 02:37:24;;;;;;;23.52;12.38;;;;;;;-1.97;100.00;97404.91;6105391;19;20003;-70
2024/03/01 02:39:25;;;;;;;23.67;12.45;;;;;;;-1.94;100.00;97400.75;6108046;19;20355;-70
2024/03/01 02:41:26;;;;;;;29.05;12.68;;;;;;;-2.00;100.00;97389.28;6105892;19;19999;-70
2024/03/01 02:43:26;;;;;;;29.40;14.02;;;;;;;-2.00;100.00;97395.50;6108436;19;20019;-70
2024/03/01 02:45:26;;;;;;;26.40;13.65;;;;;;;-1.90;100.00;97380.00;6107588;19;20003;-70
2024/03/01 02:47:27;;;;;;;24.85;11.55;;;;;;;-1.87;100.00;97384.78;6106412;19;20017;-70
2024/03/01 02:49:27;;;;;;;24.92;12.60;;;;;;;-1.87;100.00;97373.94;6107081;19;20030;-70
2024/03/01 02:51:28;;;;;;;27.05;11.60;;;;;;;-1.85;100.00;97385.25;6106260;19;20040;-70
2024/03/01 02:53:28;;;;;;;20.70;10.73;;;;;;;-1.89;100.00;97371.56;6105319;19;20013;-70
2024/03/01 02:55:29;;;;;;;29.02;12.30;;;;;;;-1.94;100.00;97352.75;6107401;19;20019;-70
2024/03/01 02:57:29;;;;;;;27.30;12.60;;;;;;;-1.86;100.00;97370.09;6105988;19;20477;-69
2024/03/01 02:59:30;;;;;;;26.73;12.30;;;;;;;-1.86;100.00;97361.97;6110054;19;20006;-70
2024/03/01 03:01:31;;;;;;;28.30;12.50;;;;;;;-1.92;100.00;97366.75;6111080;19;20113;-70
2024/03/01 03:03:31;;;;;;;28.20;11.65;;;;;;;-1.99;100.00;97371.88;6113169;19;20013;-70
2024/03/01 03:05:32;;;;;;;26.73;13.45;;;;;;;-2.04;100.00;97359.31;6112571;19;20685;-70
2024/03/01 03:07:32;;;;;;;29.27;13.18;;;;;;;-2.10;100.00;97360.59;6112322;19;20007;-70
2024/03/01 03:09:32;;;;;;;27.63;13.27;;;;;;;-2.16;100.00;97364.59;6111847;19;20066;-70
2024/03/01 03:11:34;;;;;;;25.35;12.52;;;;;;;-2.22;100.00;97356.97;6111782;19;19999;-70
2024/03/01 03:13:34;;;;;;;26.63;12.07;;;;;;;-2.23;100.00;97363.50;6112716;19;20005;-70
2024/03/01 03:15:34;;;;;;;28.13;12.75;;;;;;;-2.17;100.00;97367.63;6104904;19;20472;-70
2024/03/01 03:17:35;;;;;;;24.90;13.20;;;;;;;-2.13;100.00;97374.00;6103674;19;20335;-70
2024/03/01 03:19:36;;;;;;;27.00;12.88;;;;;;;-2.09;100.00;97380.38;6105934;19;20010;-70
2024/03/01 03:21:36;;;;;;;39.75;13.35;;;;;;;-2.14;100.00;97367.81;6104268;19;20062;-70
2024/03/01 03:23:36;;;;;;;27.38;12.35;;;;;;;-2.20;100.00;97366.38;6105375;19;20459;-70
2024/03/01 03:25:37;;;;;;;31.67;12.60;;;;;;;-2.19;100.00;97364.44;6105030;19;20003;-70
2024/03/01 03:27:37;;;;;;;28.15;13.18;;;;;;;-2.22;100.00;97379.44;6105224;19;20322;-70
2024/03/01 03:29:38;;;;;;;25.50;13.30;;;;;;;-2.26;100.00;97375.78;6104370;19;20437;-70
2024/03/01 03:31:38;;;;;;;26.40;12.02;;;;;;;-2.31;100.00;97378.66;6103540;19;20002;-70
2024/03/01 03:33:38;;;;;;;26.15;12.43;;;;;;;-2.27;100.00;97391.25;6105310;19;20079;-70
2024/03/01 03:35:39;;;;;;;24.63;11.93;;;;;;;-2.24;100.00;97378.94;6105062;19;20002;-70
2024/03/01 03:37:39;;;;;;;24.17;11.57;;;;;;;-2.19;100.00;97383.41;6103884;19;20002;-70
2024/03/01 03:39:40;;;;;;;25.75;12.60;;;;;;;-2.21;100.00;97386.47;6104950;19;20010;-70
2024/03/01 03:41:40;;;;;;;26.55;12.10;;;;;;;-2.17;100.00;97381.97;6103173;19;20486;-70
2024/03/01 03:43:41;;;;;;;26.27;12.27;;;;;;;-2.19;100.00;97389.63;6105154;19;20003;-70
2024/03/01 03:45:41;;;;;;;23.10;11.82;;;;;;;-2.28;100.00;97383.44;6104300;19;20030;-70
2024/03/01 03:47:42;;;;;;;27.17;12.25;;;;;;;-2.32;100.00;97385.19;6104913;19;20085;-70
2024/03/01 03:49:46;;;;;;;30.02;12.48;;;;;;;-2.36;100.00;97387.75;6104142;19;20034;-70
2024/03/01 03:51:47;;;;;;;27.77;12.75;;;;;;;-2.43;100.00;97397.47;6103341;19;20367;-70
2024/03/01 03:53:47;;;;;;;26.60;12.32;;;;;;;-2.41;100.00;97387.91;6104079;19;20315;-70
2024/03/01 03:55:48;;;;;;;24.25;12.48;;;;;;;-2.41;100.00;97381.69;6104063;19;20003;-70
2024/03/01 03:57:48;;;;;;;28.60;12.02;;;;;;;-2.45;100.00;97391.59;6103502;19;20023;-70
2024/03/01 03:59:48;;;;;;;22.08;10.98;;;;;;;-2.36;100.00;97393.16;6103967;19;20546;-70
2024/03/01 04:01:49;;;;;;;24.15;12.90;;;;;;;-2.37;100.00;97388.06;6103127;19;20007;-70
2024/03/01 04:03:50;;;;;;;21.50;11.77;;;;;;;-2.29;100.00;97398.09;6104768;19;20024;-70
2024/03/01 04:05:50;;;;;;;23.42;11.20;;;;;;;-2.27;100.00;97396.66;6103634;19;20593;-70
2024/03/01 04:07:51;;;;;;;24.50;12.02;;;;;;;-2.33;100.00;97389.81;6104330;19;20010;-70
2024/03/01 04:09:51;;;;;;;24.75;12.05;;;;;;;-2.32;100.00;97386.00;6103149;19;20570;-70
2024/03/01 04:11:52;;;;;;;23.02;11.35;;;;;;;-2.33;100.00;97391.72;6100071;19;20330;-70
2024/03/01 04:13:53;;;;;;;24.08;12.10;;;;;;;-2.37;100.00;97388.88;6103547;19;20412;-70
2024/03/01 04:15:53;;;;;;;22.75;12.20;;;;;;;-2.39;100.00;97391.09;6109505;19;20003;-70
2024/03/01 04:17:53;;;;;;;29.50;13.05;;;;;;;-2.45;100.00;97391.59;6111629;19;19998;-70
2024/03/01 04:19:54;;;;;;;28.20;12.27;;;;;;;-2.44;100.00;97395.88;6109080;19;20010;-70
2024/03/01 04:21:54;;;;;;;27.92;12.77;;;;;;;-2.40;100.00;97407.66;6111072;19;20020;-70
2024/03/01 04:23:55;;;;;;;21.63;11.10;;;;;;;-2.35;100.00;97405.59;6110162;19;20020;-70
2024/03/01 04:25:55;;;;;;;32.40;13.80;;;;;;;-2.31;100.00;97405.75;6109628;19;20014;-70
2024/03/01 04:27:55;;;;;;;26.20;13.15;;;;;;;-2.33;100.00;97414.19;6110997;19;20430;-70
2024/03/01 04:29:56;;;;;;;24.85;13.10;;;;;;;-2.29;100.00;97425.19;6108423;19;20023;-70
2024/03/01 04:31:56;;;;;;;26.40;13.05;;;;;;;-2.33;100.00;97424.22;6109172;19;20365;-70
2024/03/01 04:33:56;;;;;;;30.25;13.77;;;;;;;-2.34;100.00;97436.19;6111159;19;20016;-70
2024/03/01 04:35:57;;;;;;;30.92;12.60;;;;;;;-2.37;100.00;97434.13;6110024;19;19998;-70
2024/03/01 04:37:57;;;;;;;25.65;12.27;;;;;;;-2.37;100.00;97428.72;6109913;19;19999;-70
2024/03/01 04:39:57;;;;;;;24.63;11.75;;;;;;;-2.38;100.00;97419.78;6108433;19;20003;-70
2024/03/01 04:41:58;;;;;;;27.05;12.65;;;;;;;-2.44;100.00;97422.97;6106384;19;20038;-70
2024/03/01 04:43:58;;;;;;;26.80;13.00;;;;;;;-2.47;100.00;97434.44;6109439;19;20348;-70
2024/03/01 04:46:01;;;;;;;26.05;12.07;;;;;;;-2.50;100.00;97422.31;6110069;19;20013;-70
2024/03/01 04:48:01;;;;;;;26.17;11.27;;;;;;;-2.45;100.00;97418.66;6110104;19;19995;-70
2024/03/01 04:50:02;;;;;;;25.27;12.23;;;;;;;-2.52;100.00;97412.94;6108957;19;20034;-71
2024/03/01 04:52:02;;;;;;;27.23;11.85;;;;;;;-2.59;100.00;97419.59;6110245;19;20528;-71
2024/03/01 04:54:03;;;;;;;25.23;11.80;;;;;;;-2.57;100.00;97419.28;6110602;19;20006;-70
2024/03/01 04:56:03;;;;;;;24.38;11.45;;;;;;;-2.60;100.00;97411.81;6107811;19;20352;-70
2024/03/01 04:58:04;;;;;;;29.45;13.32;;;;;;;-2.58;100.00;97417.69;6109539;19;19998;-70
2024/03/01 05:00:15;;;;;;;31.25;13.15;;;;;;;-2.63;100.00;97407.03;6107639;19;20015;-70
2024/03/01 05:02:16;;;;;;;29.80;12.55;;;;;;;-2.62;100.00;97411.34;6109631;19;20022;-70
2024/03/01 05:04:16;;;;;;;28.55;11.70;;;;;;;-2.65;100.00;97418.19;6105288;19;20003;-70
2024/03/01 05:06:17;;;;;;;25.05;11.73;;;;;;;-2.62;100.00;97422.97;6105225;19;20482;-70
2024/03/01 05:08:19;;;;;;;34.42;13.40;;;;;;;-2.49;100.00;97415.00;6106958;19;20081;-70
2024/03/01 05:10:22;;;;;;;25.13;13.47;;;;;;;-2.39;100.00;97429.03;6107014;19;20015;-70
2024/03/01 05:12:24;;;;;;;27.08;12.52;;;;;;;-2.38;100.00;97419.78;6106967;19;20277;-70
2024/03/01 05:14:24;;;;;;;24.77;12.20;;;;;;;-2.31;100.00;97420.09;6108994;19;19998;-70
2024/03/01 05:16:25;;;;;;;28.17;12.40;;;;;;;-2.29;100.00;97420.56;6106102;19;20366;-70
2024/03/01 05:18:25;;;;;;;20.85;11.23;;;;;;;-2.29;100.00;97415.16;6107631;19;20367;-70
2024/03/01 05:20:25;;;;;;;20.45;11.25;;;;;;;-2.23;100.00;97421.22;6107750;19;21456;-70
2024/03/01 05:22:26;;;;;;;27.33;11.82;;;;;;;-2.25;100.00;97428.84;6108116;19;20010;-71
2024/03/01 05:24:26;;;;;;;30.08;12.65;;;;;;;-2.32;100.00;97445.59;6109887;19;20022;-71
2024/03/01 05:26:27;;;;;;;29.38;14.45;;;;;;;-2.38;100.00;97452.28;6110158;19;20014;-71
2024/03/01 05:28:27;;;;;;;27.23;13.63;;;;;;;-2.40;100.00;97457.25;6109083;19;20007;-71
2024/03/01 05:30:29;;;;;;;30.80;14.90;;;;;;;-2.39;100.00;97463.44;6108481;19;20048;-71
2024/03/01 05:32:29;;;;;;;42.05;19.48;;;;;;;-2.42;100.00;97456.75;6109376;19;20030;-70
2024/03/01 05:34:30;;;;;;;31.60;14.80;;;;;;;-2.44;100.00;97450.84;6110132;19;20003;-71
2024/03/01 05:36:30;;;;;;;28.02;13.75;;;;;;;-2.44;100.00;97444.63;6107297;19;20074;-70
2024/03/01 05:38:31;;;;;;;33.17;15.02;;;;;;;-2.46;100.00;97446.88;6100551;19;20010;-70
2024/03/01 05:40:32;;;;;;;31.63;15.90;;;;;;;-2.49;100.00;97451.00;6105491;19;20038;-70
2024/03/01 05:42:32;;;;;;;29.88;16.00;;;;;;;-2.55;100.00;97447.66;6102702;19;20006;-71
2024/03/01 05:44:32;;;;;;;33.55;16.60;;;;;;;-2.55;100.00;97455.78;6099331;19;20090;-70
2024/03/01 05:46:33;;;;;;;40.10;15.23;;;;;;;-2.60;100.00;97458.63;6106912;19;20024;-70
2024/03/01 05:48:33;;;;;;;29.90;14.75;;;;;;;-2.60;100.00;97461.34;6108945;19;20015;-70
2024/03/01 05:50:34;;;;;;;28.05;15.52;;;;;;;-2.58;100.00;97455.63;6108507;19;20074;-70
2024/03/01 05:52:35;;;;;;;26.10;13.27;;;;;;;-2.62;100.00;97454.66;6108276;19;20010;-70
2024/03/01 05:54:35;;;;;;;27.48;13.48;;;;;;;-2.61;100.00;97459.75;6108598;19;20034;-71
2024/03/01 05:56:35;;;;;;;28.70;13.95;;;;;;;-2.53;100.00;97466.31;6107527;19;20013;-71
2024/03/01 05:58:36;;;;;;;26.42;13.68;;;;;;;-2.50;100.00;97456.72;6109760;19;20011;-71
2024/03/01 06:00:39;;;;;;;28.90;13.65;;;;;;;-2.48;100.00;97454.50;6107579;19;20011;-71
2024/03/01 06:02:39;;;;;;;36.75;15.30;;;;;;;-2.46;100.00;97472.06;6106053;19;20447;-71
2024/03/01 06:04:40;;;;;;;32.35;15.40;;;;;;;-2.53;100.00;97465.50;6105187;19;20044;-71
2024/03/01 06:06:40;;;;;;;35.15;15.07;;;;;;;-2.49;100.00;97461.81;6100931;19;20006;-71
2024/03/01 06:08:41;;;;;;;32.83;14.07;;;;;;;-2.47;100.00;97469.66;6109667;19;20017;-70
2024/03/01 06:10:42;;;;;;;28.58;14.27;;;;;;;-2.52;100.00;97464.38;6104602;19;20317;-71
2024/03/01 06:12:43;;;;;;;33.58;16.70;;;;;;;-2.58;100.00;97471.84;6108331;19;20010;-71
2024/03/01 06:14:43;;;;;;;34.58;15.60;;;;;;;-2.58;100.00;97479.97;6107333;19;20007;-71
2024/03/01 06:16:44;;;;;;;36.35;16.15;;;;;;;-2.53;100.00;97482.56;6108339;19;20010;-71
2024/03/01 06:18:44;;;;;;;35.58;18.02;;;;;;;-2.56;100.00;97485.91;6107292;19;20003;-71
2024/03/01 06:20:46;;;;;;;31.92;16.10;;;;;;;-2.53;100.00;97487.97;6105935;19;20531;-71
2024/03/01 06:22:47;;;;;;;32.67;16.85;;;;;;;-2.50;100.00;97492.75;6108093;19;20008;-70
2024/03/01 06:24:47;;;;;;;38.05;15.60;;;;;;;-2.55;100.00;97493.72;6108786;19;20439;-70
2024/03/01 06:26:49;;;;;;;29.10;15.15;;;;;;;-2.46;100.00;97499.13;6109409;19;20569;-71
2024/03/01 06:28:49;;;;;;;29.48;15.35;;;;;;;-2.37;100.00;97489.09;6109774;19;20058;-71
2024/03/01 06:30:50;;;;;;;35.72;15.55;;;;;;;-2.33;100.00;97490.03;6108174;19;20066;-71
2024/03/01 06:32:50;;;;;;;34.13;14.85;;;;;;;-2.31;100.00;97493.25;6109380;19;20398;-71
2024/03/01 06:34:52;;;;;;;33.67;14.98;;;;;;;-2.33;100.00;97498.19;6106540;19;20538;-71
2024/03/01 06:36:52;;;;;;;36.08;16.75;;;;;;;-2.27;100.00;97494.19;6110397;19;20034;-71
2024/03/01 06:38:52;;;;;;;36.97;19.83;;;;;;;-2.27;100.00;97502.34;6105736;19;20006;-71
2024/03/01 06:40:53;;;;;;;36.58;17.42;;;;;;;-2.23;100.00;97493.56;6106282;19;20007;-71
2024/03/01 06:42:53;;;;;;;42.85;20.70;;;;;;;-2.22;100.00;97506.81;6105237;19;20026;-71
2024/03/01 06:44:54;;;;;;;31.85;15.27;;;;;;;-2.20;100.00;97514.63;6106836;19;20003;-71
2024/03/01 06:46:54;;;;;;;46.58;21.33;;;;;;;-2.16;100.00;97493.88;6109013;19;20122;-71
2024/03/01 06:48:55;;;;;;;42.78;20.33;;;;;;;-2.11;100.00;97505.38;6108609;19;20091;-71
2024/03/01 06:50:55;;;;;;;42.83;18.45;;;;;;;-2.10;100.00;97508.88;6107436;19;20021;-71
2024/03/01 06:52:56;;;;;;;38.90;20.20;;;;;;;-2.03;100.00;97506.47;6109503;19;20034;-71
2024/03/01 06:54:57;;;;;;;50.67;24.25;;;;;;;-1.98;100.00;97499.00;6107633;19;20003;-71
2024/03/01 06:56:58;;;;;;;41.85;16.98;;;;;;;-1.94;100.00;97501.06;6109311;19;20033;-71
2024/03/01 06:58:58;;;;;;;39.25;16.30;;;;;;;-1.92;100.00;97499.59;6108975;19;20455;-71
2024/03/01 07:01:01;;;;;;;43.65;17.38;;;;;;;-1.90;100.00;97499.28;6107604;19;20007;-71
2024/03/01 07:03:02;;;;;;;35.75;15.95;;;;;;;-1.90;100.00;97493.84;6108693;19;20565;-71
2024/03/01 07:05:04;;;;;;;39.13;17.88;;;;;;;-1.89;100.00;97499.00;6109026;19;20030;-71
2024/03/01 07:07:04;;;;;;;33.80;17.65;;;;;;;-1.89;100.00;97496.28;6108165;19;20006;-71
2024/03/01 07:09:05;;;;;;;40.97;19.75;;;;;;;-1.83;100.00;97494.19;6108094;19;20486;-70
2024/03/01 07:11:05;;;;;;;40.83;20.67;;;;;;;-1.80;100.00;97488.94;6106920;19;20026;-70
2024/03/01 07:13:05;;;;;;;41.30;19.40;;;;;;;-1.77;100.00;97492.91;6108462;19;20006;-70
2024/03/01 07:15:08;;;;;;;42.17;20.25;;;;;;;-1.72;100.00;97498.16;6099336;19;20130;-71
2024/03/01 07:17:08;;;;;;;;;;;;;;;-1.67;100.00;97506.13;6108745;19;20006;-70
2024/03/01 07:19:09;;;;;;;44.45;19.58;;;;;;;-1.64;100.00;97513.63;6108106;19;20374;-71
2024/03/01 07:21:09;;;;;;;44.92;19.60;;;;;;;-1.62;100.00;97507.88;6106247;19;20013;-71
2024/03/01 07:23:10;;;;;;;48.22;22.63;;;;;;;-1.60;100.00;97508.34;6107073;19;20010;-71
2024/03/01 07:25:10;;;;;;;52.65;24.58;;;;;;;-1.53;100.00;97511.38;6107722;19;20006;-71
2024/03/01 07:27:14;;;;;;;62.60;27.23;;;;;;;-1.44;100.00;97509.44;6108144;19;20010;-70
2024/03/01 07:29:14;;;;;;;45.78;21.88;;;;;;;-1.41;100.00;97508.78;6107554;19;20092;-71
2024/03/01 07:31:15;;;;;;;41.28;19.25;;;;;;;-1.32;100.00;97500.63;6104234;19;20074;-71
2024/03/01 07:33:15;;;;;;;43.20;20.63;;;;;;;-1.25;100.00;97498.19;6108051;19;20032;-71
2024/03/01 07:35:15;;;;;;;37.10;20.05;;;;;;;-1.19;100.00;97500.41;6106962;19;20002;-70
2024/03/01 07:37:16;;;;;;;34.97;15.65;;;;;;;-1.13;100.00;97504.53;6106206;19;20268;-71
2024/03/01 07:39:16;;;;;;;26.38;13.55;;;;;;;-1.02;100.00;97507.69;6107135;19;20006;-71
2024/03/01 07:41:18;;;;;;;37.95;13.95;;;;;;;-0.97;100.00;97504.81;6106139;19;20007;-70
2024/03/01 07:43:19;;;;;;;30.10;13.63;;;;;;;-0.94;100.00;97506.06;6107410;19;20384;-70
2024/03/01 07:45:20;;;;;;;37.95;13.43;;;;;;;-0.91;100.00;97503.50;6109053;19;19999;-70
2024/03/01 07:47:21;;;;;;;29.50;14.10;;;;;;;-0.88;100.00;97500.13;6113051;19;20396;-70
2024/03/01 07:49:21;;;;;;;27.77;12.52;;;;;;;-0.81;100.00;97515.91;6113214;19;20005;-70
2024/03/01 07:51:21;;;;;;;30.05;12.43;;;;;;;-0.82;100.00;97517.03;6111998;19;19999;-70
2024/03/01 07:53:21;;;;;;;33.63;14.25;;;;;;;-0.78;100.00;97509.81;6112671;19;20006;-70
2024/03/01 07:55:22;;;;;;;28.80;13.18;;;;;;;-0.75;100.00;97511.06;6112406;19;20005;-70
2024/03/01 07:57:22;;;;;;;32.97;14.30;;;;;;;-0.71;100.00;97514.75;6111189;19;19995;-70
2024/03/01 07:59:22;;;;;;;28.08;12.20;;;;;;;-0.67;100.00;97529.25;6112728;19;20517;-70
2024/03/01 08:01:23;;;;;;;28.83;14.82;;;;;;;-0.62;100.00;97526.34;6112245;19;20501;-70
2024/03/01 08:03:23;;;;;;;33.13;15.07;;;;;;;-0.57;100.00;97523.47;6112563;19;19999;-70
2024/03/01 08:05:23;;;;;;;34.75;16.25;;;;;;;-0.52;100.00;97515.09;6111987;19;20344;-70
2024/03/01 08:07:24;;;;;;;37.58;17.42;;;;;;;-0.48;100.00;97513.34;6112441;19;20050;-70
2024/03/01 08:09:32;;;;;;;46.15;21.65;;;;;;;-0.41;100.00;97515.53;6112150;19;20491;-70
2024/03/01 08:11:35;;;;;;;47.78;22.42;;;;;;;-0.33;100.00;97520.91;6110738;19;19994;-70
2024/03/01 08:13:36;;;;;;;45.50;20.98;;;;;;;-0.26;100.00;97525.81;6112223;19;20013;-70
2024/03/01 08:15:37;;;;;;;42.75;20.63;;;;;;;-0.17;100.00;97520.31;6105496;19;20009;-70
2024/03/01 08:17:37;;;;;;;39.22;19.52;;;;;;;-0.08;100.00;97530.00;6105168;19;20047;-70
2024/03/01 08:19:41;;;;;;;45.90;20.77;;;;;;;0.06;100.00;97528.94;6106083;19;19999;-70
2024/03/01 08:21:41;;;;;;;37.50;17.63;;;;;;;0.26;100.00;97525.41;6102816;19;20007;-70
2024/03/01 08:23:43;;;;;;;41.30;17.67;;;;;;;0.44;100.00;97521.41;6104843;19;20776;-70
2024/03/01 08:25:44;;;;;;;36.95;15.63;;;;;;;0.56;100.00;97518.72;6105582;19;20007;-70
2024/03/01 08:27:44;;;;;;;32.53;14.05;;;;;;;0.66;100.00;97519.41;6104898;19;20094;-70
2024/03/01 08:29:44;;;;;;;34.20;15.10;;;;;;;0.75;100.00;97517.41;6104310;19;20007;-70
2024/03/01 08:31:45;;;;;;;28.50;14.50;;;;;;;0.82;100.00;97517.63;6103768;19;20023;-70
2024/03/01 08:33:45;;;;;;;34.72;14.80;;;;;;;0.91;100.00;97501.19;6103971;19;20003;-70
2024/03/01 08:35:47;;;;;;;32.53;13.85;;;;;;;0.92;100.00;97509.06;6104371;19;20006;-70
2024/03/01 08:37:48;;;;;;;31.83;15.30;;;;;;;0.92;100.00;97514.50;6104637;19;20010;-70
2024/03/01 08:39:50;;;;;;;29.15;13.27;;;;;;;1.00;100.00;97521.78;6104880;19;20477;-70
2024/03/01 08:41:55;;;;;;;28.15;13.05;;;;;;;1.06;100.00;97522.34;6103131;19;20007;-70
2024/03/01 08:43:57;;;;;;;39.67;15.27;;;;;;;1.09;100.00;97511.56;6103916;19;20007;-70
2024/03/01 08:46:01;;;;;;;29.73;14.00;;;;;;;1.10;100.00;97510.44;6104494;19;20025;-70
2024/03/01 08:48:11;;;;;;;30.92;14.40;;;;;;;1.19;100.00;97506.81;6103451;19;20015;-70
2024/03/01 08:50:50;;;;;;;29.15;13.90;;;;;;;1.30;100.00;97513.38;6102795;19;20511;-70
2024/03/01 08:52:51;;;;;;;29.67;12.65;;;;;;;1.32;100.00;97509.16;6100895;19;20011;-70
2024/03/01 08:54:55;;;;;;;28.42;12.90;;;;;;;1.29;100.00;97509.06;6100716;19;20561;-70
2024/03/01 08:57:05;;;;;;;34.50;12.95;;;;;;;1.30;100.00;97516.91;6098195;19;20123;-70
2024/03/01 08:59:27;;;;;;;32.05;13.88;;;;;;;1.33;100.00;97510.78;6104670;19;20010;-70
2024/03/01 09:01:49;;;;;;;29.77;14.20;;;;;;;1.40;100.00;97513.72;6101410;19;20434;-70
2024/03/01 09:03:49;;;;;;;28.88;13.60;;;;;;;1.46;100.00;97517.00;6104145;19;20036;-70
2024/03/01 09:05:55;;;;;;;36.67;16.52;;;;;;;1.57;100.00;97509.16;6103647;19;20463;-70
2024/03/01 09:07:57;;;;;;;35.97;17.30;;;;;;;1.63;100.00;97513.25;6103816;19;20456;-70
2024/03/01 09:09:58;;;;;;;35.42;17.48;;;;;;;1.71;100.00;97512.31;6102230;19;20011;-70